createdAt,value
2022-09-26T00:00:51.373Z,0.90
2022-09-26T00:01:51.796Z,0.89
2022-09-26T00:02:52.258Z,0.88
2022-09-26T00:03:52.607Z,0.88
2022-09-26T00:04:53.044Z,0.88
2022-09-26T00:05:53.498Z,0.89
2022-09-26T00:06:53.917Z,0.88
2022-09-26T00:07:54.351Z,0.89
2022-09-26T00:08:54.788Z,0.89
2022-09-26T00:09:55.221Z,0.89
2022-09-26T00:10:55.680Z,0.88
2022-09-26T00:11:56.093Z,0.87
2022-09-26T00:12:56.536Z,0.88
2022-09-26T00:13:56.960Z,0.87
2022-09-26T00:14:57.398Z,0.86
2022-09-26T00:15:57.854Z,0.86
2022-09-26T00:16:58.334Z,0.85
2022-09-26T00:17:58.705Z,0.85
2022-09-26T00:18:59.139Z,0.85
2022-09-26T00:19:59.573Z,0.84
2022-09-26T00:21:00.031Z,0.85
2022-09-26T00:22:00.443Z,0.85
2022-09-26T00:23:00.882Z,0.85
2022-09-26T00:24:01.319Z,0.85
2022-09-26T00:25:01.762Z,0.86
2022-09-26T00:26:02.210Z,0.86
2022-09-26T00:27:02.621Z,0.85
2022-09-26T00:28:03.058Z,0.85
2022-09-26T00:29:03.494Z,0.85
2022-09-26T00:30:03.940Z,0.86
2022-09-26T00:31:04.512Z,0.86
2022-09-26T00:32:04.800Z,0.87
2022-09-26T00:33:05.236Z,0.88
2022-09-26T00:34:05.670Z,0.91
2022-09-26T00:35:06.108Z,0.96
2022-09-26T00:36:06.565Z,0.97
2022-09-26T00:37:06.980Z,0.99
2022-09-26T00:38:07.412Z,1.00
2022-09-26T00:39:07.847Z,1.02
2022-09-26T00:40:08.283Z,1.03
2022-09-26T00:41:08.736Z,1.04
2022-09-26T00:42:09.161Z,1.05
2022-09-26T00:43:09.588Z,1.04
2022-09-26T00:44:10.022Z,1.04
2022-09-26T00:45:10.459Z,1.04
2022-09-26T00:46:10.992Z,1.05
2022-09-26T00:47:11.328Z,1.07
2022-09-26T00:48:11.760Z,1.09
2022-09-26T00:49:12.276Z,1.10
2022-09-26T00:50:12.631Z,1.12
2022-09-26T00:51:13.087Z,1.12
2022-09-26T00:52:13.507Z,1.12
2022-09-26T00:53:13.937Z,1.11
2022-09-26T00:54:14.373Z,1.14
2022-09-26T00:55:14.809Z,1.13
2022-09-26T00:56:15.264Z,1.12
2022-09-26T00:57:15.677Z,1.12
2022-09-26T00:58:16.113Z,1.11
2022-09-26T00:59:16.549Z,1.09
2022-09-26T01:00:16.983Z,1.08
2022-09-26T01:01:17.593Z,1.06
2022-09-26T01:02:18.003Z,1.04
2022-09-26T01:03:18.294Z,1.02
2022-09-26T01:04:18.728Z,1.01
2022-09-26T01:05:19.161Z,1.00
2022-09-26T01:06:19.629Z,0.99
2022-09-26T01:07:20.030Z,0.98
2022-09-26T01:08:20.466Z,0.97
2022-09-26T01:09:20.901Z,0.96
2022-09-26T01:10:21.336Z,0.96
2022-09-26T01:11:21.790Z,0.96
2022-09-26T01:12:22.206Z,0.94
2022-09-26T01:13:22.645Z,0.94
2022-09-26T01:14:23.080Z,0.94
2022-09-26T01:15:23.512Z,0.94
2022-09-26T01:16:24.049Z,0.95
2022-09-26T01:17:24.397Z,0.95
2022-09-26T01:18:24.818Z,0.94
2022-09-26T01:19:25.258Z,0.93
2022-09-26T01:20:25.688Z,0.93
2022-09-26T01:21:26.143Z,0.93
2022-09-26T01:22:26.561Z,0.93
2022-09-26T01:23:26.995Z,0.92
2022-09-26T01:24:27.436Z,0.92
2022-09-26T01:25:27.866Z,0.92
2022-09-26T01:26:28.325Z,0.92
2022-09-26T01:27:28.740Z,0.91
2022-09-26T01:28:29.172Z,0.91
2022-09-26T01:29:29.610Z,0.90
2022-09-26T01:30:30.135Z,0.90
2022-09-26T01:31:30.502Z,0.90
2022-09-26T01:32:30.913Z,0.90
2022-09-26T01:33:31.350Z,0.90
2022-09-26T01:34:31.791Z,0.90
2022-09-26T01:35:32.222Z,0.90
2022-09-26T01:36:32.682Z,0.91
2022-09-26T01:37:33.095Z,0.92
2022-09-26T01:38:33.532Z,0.94
2022-09-26T01:39:33.960Z,0.95
2022-09-26T01:40:34.464Z,0.96
2022-09-26T01:41:34.857Z,0.97
2022-09-26T01:42:35.267Z,0.97
2022-09-26T01:43:35.701Z,0.96
2022-09-26T01:44:36.138Z,0.98
2022-09-26T01:45:36.671Z,0.98
2022-09-26T01:46:37.031Z,0.98
2022-09-26T01:47:37.444Z,0.97
2022-09-26T01:48:37.882Z,0.97
2022-09-26T01:49:38.343Z,0.97
2022-09-26T01:50:38.753Z,0.96
2022-09-26T01:51:39.222Z,0.95
2022-09-26T01:52:39.619Z,0.94
2022-09-26T01:53:40.055Z,0.93
2022-09-26T01:54:40.492Z,0.93
2022-09-26T01:55:40.926Z,0.93
2022-09-26T01:56:41.382Z,0.94
2022-09-26T01:57:41.798Z,0.95
2022-09-26T01:58:42.232Z,0.95
2022-09-26T01:59:42.666Z,0.96
2022-09-26T02:00:43.153Z,0.96
2022-09-26T02:01:43.641Z,0.95
2022-09-26T02:02:44.033Z,0.94
2022-09-26T02:03:44.409Z,0.94
2022-09-26T02:04:44.846Z,0.93
2022-09-26T02:05:45.285Z,0.95
2022-09-26T02:06:45.737Z,0.95
2022-09-26T02:07:46.150Z,0.94
2022-09-26T02:08:46.594Z,0.93
2022-09-26T02:09:47.026Z,0.92
2022-09-26T02:10:47.457Z,0.92
2022-09-26T02:11:47.911Z,0.92
2022-09-26T02:12:48.334Z,0.94
2022-09-26T02:13:48.763Z,0.95
2022-09-26T02:14:49.198Z,0.95
2022-09-26T02:15:49.637Z,0.96
2022-09-26T02:16:50.173Z,0.96
2022-09-26T02:17:50.510Z,0.95
2022-09-26T02:18:50.940Z,0.95
2022-09-26T02:19:51.374Z,0.95
2022-09-26T02:20:51.812Z,0.94
2022-09-26T02:21:52.272Z,0.93
2022-09-26T02:22:52.687Z,0.92
2022-09-26T02:23:53.117Z,0.93
2022-09-26T02:24:53.550Z,0.93
2022-09-26T02:25:53.995Z,0.94
2022-09-26T02:26:54.447Z,0.94
2022-09-26T02:27:54.860Z,0.96
2022-09-26T02:28:55.293Z,0.96
2022-09-26T02:29:55.728Z,0.97
2022-09-26T02:30:56.162Z,0.98
2022-09-26T02:31:56.669Z,0.97
2022-09-26T02:32:57.034Z,0.98
2022-09-26T02:33:57.466Z,0.97
2022-09-26T02:34:57.903Z,0.97
2022-09-26T02:35:58.336Z,0.95
2022-09-26T02:36:58.796Z,0.93
2022-09-26T02:37:59.211Z,0.93
2022-09-26T02:38:59.645Z,0.93
2022-09-26T02:40:00.081Z,0.92
2022-09-26T02:41:00.572Z,0.92
2022-09-26T02:42:00.966Z,0.92
2022-09-26T02:43:01.388Z,0.92
2022-09-26T02:44:01.823Z,0.92
2022-09-26T02:45:02.257Z,0.92
2022-09-26T02:46:02.771Z,0.93
2022-09-26T02:47:03.169Z,0.93
2022-09-26T02:48:03.563Z,0.93
2022-09-26T02:49:03.997Z,0.94
2022-09-26T02:50:04.435Z,0.94
2022-09-26T02:51:04.870Z,0.95
2022-09-26T02:52:05.321Z,0.97
2022-09-26T02:53:05.742Z,0.98
2022-09-26T02:54:06.170Z,0.99
2022-09-26T02:55:06.612Z,1.00
2022-09-26T02:56:07.042Z,1.00
2022-09-26T02:57:07.507Z,1.00
2022-09-26T02:58:07.917Z,1.00
2022-09-26T02:59:08.349Z,1.01
2022-09-26T03:00:08.779Z,1.03
2022-09-26T03:01:09.266Z,1.06
2022-09-26T03:02:09.673Z,1.08
2022-09-26T03:03:10.089Z,1.15
2022-09-26T03:04:10.519Z,1.15
2022-09-26T03:05:10.999Z,1.17
2022-09-26T03:06:11.390Z,1.17
2022-09-26T03:07:11.857Z,1.18
2022-09-26T03:08:12.260Z,1.17
2022-09-26T03:09:12.699Z,1.19
2022-09-26T03:10:13.127Z,1.23
2022-09-26T03:11:13.570Z,1.25
2022-09-26T03:12:14.016Z,1.27
2022-09-26T03:13:14.436Z,1.30
2022-09-26T03:14:14.881Z,1.34
2022-09-26T03:15:15.303Z,1.30
2022-09-26T03:16:15.758Z,1.29
2022-09-26T03:17:16.208Z,1.31
2022-09-26T03:18:16.601Z,1.35
2022-09-26T03:19:17.037Z,1.36
2022-09-26T03:20:17.469Z,1.36
2022-09-26T03:21:17.905Z,1.35
2022-09-26T03:22:18.368Z,1.29
2022-09-26T03:23:18.773Z,1.32
2022-09-26T03:24:19.207Z,1.32
2022-09-26T03:25:19.652Z,1.32
2022-09-26T03:26:20.075Z,1.28
2022-09-26T03:27:20.535Z,1.26
2022-09-26T03:28:20.944Z,1.25
2022-09-26T03:29:21.386Z,1.23
2022-09-26T03:30:21.817Z,1.20
2022-09-26T03:31:22.338Z,1.18
2022-09-26T03:32:22.705Z,1.16
2022-09-26T03:33:23.124Z,1.15
2022-09-26T03:34:23.562Z,1.13
2022-09-26T03:35:23.998Z,1.13
2022-09-26T03:36:24.426Z,1.13
2022-09-26T03:37:24.871Z,1.11
2022-09-26T03:38:25.294Z,1.11
2022-09-26T03:39:25.732Z,1.10
2022-09-26T03:41:28.788Z,1.09
2022-09-26T03:42:29.239Z,1.10
2022-09-26T03:43:29.655Z,1.09
2022-09-26T03:44:30.089Z,1.10
2022-09-26T03:45:30.606Z,1.09
2022-09-26T03:46:30.958Z,1.09
2022-09-26T03:47:31.415Z,1.07
2022-09-26T03:48:31.831Z,1.08
2022-09-26T03:49:32.261Z,1.08
2022-09-26T03:50:32.696Z,1.07
2022-09-26T03:51:33.131Z,1.06
2022-09-26T03:52:33.586Z,1.09
2022-09-26T03:53:34.024Z,1.09
2022-09-26T03:54:34.436Z,1.07
2022-09-26T03:55:34.871Z,1.08
2022-09-26T03:56:35.306Z,1.08
2022-09-26T03:57:35.774Z,1.07
2022-09-26T03:58:36.174Z,1.05
2022-09-26T03:59:36.614Z,1.05
2022-09-26T04:00:37.080Z,1.05
2022-09-26T04:01:37.481Z,1.05
2022-09-26T04:02:37.972Z,1.05
2022-09-26T04:03:38.351Z,1.06
2022-09-26T04:04:38.785Z,1.07
2022-09-26T04:05:39.225Z,1.06
2022-09-26T04:06:39.654Z,1.08
2022-09-26T04:07:40.109Z,1.10
2022-09-26T04:08:40.524Z,1.12
2022-09-26T04:09:40.961Z,1.14
2022-09-26T04:10:41.394Z,1.13
2022-09-26T04:11:41.829Z,1.10
2022-09-26T04:12:42.283Z,1.10
2022-09-26T04:13:57.651Z,1.09
2022-09-26T04:14:43.132Z,1.09
2022-09-26T04:15:43.569Z,1.09
2022-09-26T04:16:44.043Z,1.10
2022-09-26T04:17:44.459Z,1.10
2022-09-26T04:18:44.870Z,1.11
2022-09-26T04:19:45.308Z,1.12
2022-09-26T04:20:45.742Z,1.13
2022-09-26T04:21:46.176Z,1.15
2022-09-26T04:22:46.630Z,1.15
2022-09-26T04:23:47.047Z,1.15
2022-09-26T04:24:47.480Z,1.14
2022-09-26T04:25:47.918Z,1.15
2022-09-26T04:26:48.349Z,1.15
2022-09-26T04:27:48.806Z,1.17
2022-09-26T04:28:49.218Z,1.17
2022-09-26T04:29:49.655Z,1.16
2022-09-26T04:30:50.088Z,1.15
2022-09-26T04:31:50.623Z,1.14
2022-09-26T04:32:50.976Z,1.12
2022-09-26T04:33:51.394Z,1.12
2022-09-26T04:34:51.825Z,1.10
2022-09-26T04:35:52.265Z,1.08
2022-09-26T04:36:52.698Z,1.08
2022-09-26T04:37:53.154Z,1.08
2022-09-26T04:38:53.566Z,1.07
2022-09-26T04:39:54.004Z,1.05
2022-09-26T04:40:54.520Z,1.05
2022-09-26T04:41:54.871Z,1.04
2022-09-26T04:42:55.323Z,1.05
2022-09-26T04:43:55.742Z,1.05
2022-09-26T04:44:56.175Z,1.05
2022-09-26T04:45:56.657Z,1.05
2022-09-26T04:46:57.043Z,1.06
2022-09-26T04:47:57.499Z,1.07
2022-09-26T04:48:57.915Z,1.08
2022-09-26T04:49:58.347Z,1.12
2022-09-26T04:50:58.784Z,1.13
2022-09-26T04:51:59.215Z,1.13
2022-09-26T04:52:59.670Z,1.12
2022-09-26T04:54:00.087Z,1.13
2022-09-26T04:55:00.521Z,1.14
2022-09-26T04:56:00.957Z,1.13
2022-09-26T04:57:01.388Z,1.13
2022-09-26T04:58:01.845Z,1.12
2022-09-26T04:59:02.268Z,1.11
2022-09-26T05:00:02.691Z,1.11
2022-09-26T05:01:03.202Z,1.08
2022-09-26T05:02:03.663Z,1.09
2022-09-26T05:03:04.041Z,1.08
2022-09-26T05:04:04.429Z,1.08
2022-09-26T05:05:04.861Z,1.08
2022-09-26T05:06:05.298Z,1.07
2022-09-26T05:07:05.734Z,1.06
2022-09-26T05:08:06.193Z,1.05
2022-09-26T05:09:06.672Z,1.05
2022-09-26T05:10:07.035Z,1.04
2022-09-26T05:11:07.475Z,1.03
2022-09-26T05:12:07.905Z,1.03
2022-09-26T05:13:08.356Z,1.05
2022-09-26T05:14:08.773Z,1.05
2022-09-26T05:15:09.205Z,1.03
2022-09-26T05:16:09.696Z,1.02
2022-09-26T05:17:10.087Z,1.00
2022-09-26T05:18:10.533Z,1.00
2022-09-26T05:19:10.980Z,1.00
2022-09-26T05:20:11.383Z,1.00
2022-09-26T05:21:11.818Z,0.99
2022-09-26T05:22:12.250Z,0.99
2022-09-26T05:23:12.706Z,1.00
2022-09-26T05:24:13.119Z,0.99
2022-09-26T05:25:13.551Z,0.99
2022-09-26T05:26:13.988Z,0.98
2022-09-26T05:27:14.423Z,0.97
2022-09-26T05:28:14.876Z,0.97
2022-09-26T05:29:15.343Z,0.97
2022-09-26T05:30:15.727Z,0.97
2022-09-26T05:31:16.202Z,0.97
2022-09-26T05:32:16.595Z,0.95
2022-09-26T05:33:17.053Z,0.95
2022-09-26T05:34:20.013Z,0.94
2022-09-26T05:35:17.899Z,0.93
2022-09-26T05:36:18.342Z,0.93
2022-09-26T05:37:18.771Z,0.93
2022-09-26T05:38:19.228Z,0.93
2022-09-26T05:39:19.639Z,0.93
2022-09-26T05:40:20.124Z,0.93
2022-09-26T05:41:20.512Z,0.93
2022-09-26T05:42:20.951Z,0.93
2022-09-26T05:43:21.398Z,0.92
2022-09-26T05:44:21.816Z,0.92
2022-09-26T05:45:22.247Z,0.92
2022-09-26T05:46:22.727Z,0.92
2022-09-26T05:47:23.116Z,0.92
2022-09-26T05:48:23.575Z,0.91
2022-09-26T05:49:24.006Z,0.92
2022-09-26T05:50:24.423Z,0.92
2022-09-26T05:51:24.859Z,0.92
2022-09-26T05:52:25.295Z,0.92
2022-09-26T05:53:25.746Z,0.93
2022-09-26T05:54:26.161Z,0.93
2022-09-26T05:55:26.595Z,0.92
2022-09-26T05:56:27.031Z,0.92
2022-09-26T05:57:27.472Z,0.92
2022-09-26T05:58:27.932Z,0.90
2022-09-26T05:59:28.334Z,0.90
2022-09-26T06:00:28.830Z,0.90
2022-09-26T06:01:29.255Z,0.89
2022-09-26T06:02:29.679Z,0.88
2022-09-26T06:03:30.099Z,0.88
2022-09-26T06:04:30.513Z,0.88
2022-09-26T06:05:30.947Z,0.87
2022-09-26T06:06:31.385Z,0.87
2022-09-26T06:07:31.815Z,0.87
2022-09-26T06:08:32.274Z,0.86
2022-09-26T06:09:32.687Z,0.86
2022-09-26T06:10:33.123Z,0.85
2022-09-26T06:11:33.558Z,0.85
2022-09-26T06:12:33.997Z,0.86
2022-09-26T06:13:34.450Z,0.86
2022-09-26T06:14:34.874Z,0.86
2022-09-26T06:15:35.300Z,0.87
2022-09-26T06:16:35.818Z,0.87
2022-09-26T06:17:36.172Z,0.88
2022-09-26T06:18:36.633Z,0.88
2022-09-26T06:19:37.042Z,0.87
2022-09-26T06:20:37.480Z,0.86
2022-09-26T06:21:37.918Z,0.85
2022-09-26T06:22:38.350Z,0.84
2022-09-26T06:23:38.805Z,0.83
2022-09-26T06:24:39.221Z,0.83
2022-09-26T06:25:39.656Z,0.82
2022-09-26T06:26:40.095Z,0.81
2022-09-26T06:27:40.528Z,0.81
2022-09-26T06:28:40.987Z,0.81
2022-09-26T06:29:41.400Z,0.80
2022-09-26T06:30:41.838Z,0.80
2022-09-26T06:31:42.313Z,0.80
2022-09-26T06:32:42.710Z,0.79
2022-09-26T06:33:43.165Z,0.79
2022-09-26T06:34:43.583Z,0.79
2022-09-26T06:35:44.019Z,0.79
2022-09-26T06:36:44.456Z,0.79
2022-09-26T06:37:44.893Z,0.78
2022-09-26T06:38:45.355Z,0.78
2022-09-26T06:39:45.766Z,0.78
2022-09-26T06:40:46.245Z,0.79
2022-09-26T06:41:46.639Z,0.79
2022-09-26T06:42:47.080Z,0.79
2022-09-26T06:43:47.684Z,0.78
2022-09-26T06:44:47.953Z,0.78
2022-09-26T06:45:48.390Z,0.79
2022-09-26T06:46:48.880Z,0.79
2022-09-26T06:47:49.263Z,0.80
2022-09-26T06:48:49.721Z,0.81
2022-09-26T06:49:50.138Z,0.82
2022-09-26T06:50:50.575Z,0.83
2022-09-26T06:51:51.011Z,0.84
2022-09-26T06:52:51.449Z,0.85
2022-09-26T06:53:51.904Z,0.86
2022-09-26T06:54:52.324Z,0.85
2022-09-26T06:55:52.759Z,0.85
2022-09-26T06:56:53.197Z,0.86
2022-09-26T06:57:53.634Z,0.86
2022-09-26T06:58:54.090Z,0.86
2022-09-26T06:59:54.505Z,0.86
2022-09-26T07:00:55.097Z,0.86
2022-09-26T07:01:55.728Z,0.85
2022-09-26T07:02:55.815Z,0.85
2022-09-26T07:03:56.285Z,0.83
2022-09-26T07:04:56.692Z,0.83
2022-09-26T07:05:57.133Z,0.81
2022-09-26T07:06:58.379Z,0.81
2022-09-26T07:07:58.001Z,0.80
2022-09-26T07:09:03.090Z,0.80
2022-09-26T07:09:58.876Z,0.78
2022-09-26T07:11:15.914Z,0.75
2022-09-26T07:12:15.704Z,0.72
2022-09-26T07:13:00.193Z,0.69
2022-09-26T07:14:00.649Z,0.68
2022-09-26T07:15:01.080Z,0.67
2022-09-26T07:16:01.586Z,0.66
2022-09-26T07:17:01.945Z,0.66
2022-09-26T07:18:02.384Z,0.68
2022-09-26T07:19:02.843Z,0.68
2022-09-26T07:20:03.260Z,0.70
2022-09-26T07:21:03.699Z,0.71
2022-09-26T07:22:04.135Z,0.71
2022-09-26T07:23:04.575Z,0.71
2022-09-26T07:24:05.033Z,0.71
2022-09-26T07:25:05.451Z,0.71
2022-09-26T07:26:05.888Z,0.72
2022-09-26T07:27:06.331Z,0.74
2022-09-26T07:28:06.765Z,0.74
2022-09-26T07:29:07.224Z,0.73
2022-09-26T07:30:07.643Z,0.73
2022-09-26T07:31:08.147Z,0.74
2022-09-26T07:32:08.526Z,0.75
2022-09-26T07:33:08.959Z,0.75
2022-09-26T07:34:10.215Z,0.76
2022-09-26T07:35:09.838Z,0.78
2022-09-26T07:36:10.274Z,0.79
2022-09-26T07:37:10.715Z,0.81
2022-09-26T07:38:11.152Z,0.82
2022-09-26T07:39:11.698Z,0.82
2022-09-26T07:40:12.111Z,0.83
2022-09-26T07:41:12.467Z,0.83
2022-09-26T07:42:12.905Z,0.83
2022-09-26T07:43:20.142Z,0.83
2022-09-26T07:45:28.956Z,0.82
2022-09-26T07:46:14.688Z,0.81
2022-09-26T07:47:15.095Z,0.82
2022-09-26T07:48:15.534Z,0.82
2022-09-26T07:49:15.987Z,0.82
2022-09-26T07:50:16.409Z,0.82
2022-09-26T07:51:16.846Z,0.82
2022-09-26T07:52:17.283Z,0.81
2022-09-26T07:53:17.725Z,0.82
2022-09-26T07:54:18.189Z,0.83
2022-09-26T07:55:18.605Z,0.83
2022-09-26T07:56:19.042Z,0.83
2022-09-26T07:57:19.503Z,0.85
2022-09-26T07:58:19.920Z,0.84
2022-09-26T07:59:20.383Z,0.83
2022-09-26T08:00:20.800Z,0.83
2022-09-26T08:01:21.301Z,0.83
2022-09-26T08:02:21.854Z,0.81
2022-09-26T08:03:22.190Z,0.79
2022-09-26T08:04:22.581Z,0.81
2022-09-26T08:05:23.005Z,0.81
2022-09-26T08:06:23.447Z,0.81
2022-09-26T08:07:23.894Z,0.80
2022-09-26T08:08:24.330Z,0.80
2022-09-26T08:09:24.792Z,0.81
2022-09-26T08:10:25.216Z,0.85
2022-09-26T08:11:25.657Z,0.87
2022-09-26T08:12:26.096Z,0.87
2022-09-26T08:13:26.537Z,0.86
2022-09-26T08:14:27.001Z,0.85
2022-09-26T08:15:27.420Z,0.84
2022-09-26T08:16:27.991Z,0.83
2022-09-26T08:17:28.301Z,0.82
2022-09-26T08:18:28.742Z,0.83
2022-09-26T08:19:29.203Z,0.85
2022-09-26T08:20:32.197Z,0.86
2022-09-26T08:21:30.063Z,0.88
2022-09-26T08:22:30.517Z,0.88
2022-09-26T08:23:30.944Z,0.87
2022-09-26T08:24:31.405Z,0.86
2022-09-26T08:25:31.826Z,0.86
2022-09-26T08:26:32.279Z,0.85
2022-09-26T08:27:32.708Z,0.88
2022-09-26T08:28:33.149Z,0.89
2022-09-26T08:29:33.607Z,0.87
2022-09-26T08:30:34.030Z,0.86
2022-09-26T08:31:34.502Z,0.84
2022-09-26T08:32:34.991Z,0.84
2022-09-26T08:33:35.358Z,0.84
2022-09-26T08:34:35.819Z,0.84
2022-09-26T08:35:36.238Z,0.83
2022-09-26T08:36:36.681Z,0.84
2022-09-26T08:37:37.121Z,0.86
2022-09-26T08:38:37.565Z,0.88
2022-09-26T08:39:38.024Z,0.87
2022-09-26T08:40:38.552Z,0.90
2022-09-26T08:41:38.887Z,0.89
2022-09-26T08:42:39.330Z,0.86
2022-09-26T08:43:39.772Z,0.83
2022-09-26T08:44:40.236Z,0.82
2022-09-26T08:45:43.079Z,0.80
2022-09-26T08:46:41.120Z,0.78
2022-09-26T08:47:41.544Z,0.76
2022-09-26T08:48:41.985Z,0.74
2022-09-26T08:49:42.447Z,0.73
2022-09-26T08:50:42.881Z,0.73
2022-09-26T08:51:43.318Z,0.72
2022-09-26T08:52:43.810Z,0.72
2022-09-26T08:53:44.210Z,0.71
2022-09-26T08:54:44.681Z,0.70
2022-09-26T08:55:45.104Z,0.69
2022-09-26T08:56:45.553Z,0.68
2022-09-26T08:57:46.002Z,0.70
2022-09-26T08:58:46.451Z,0.72
2022-09-26T08:59:46.919Z,0.72
2022-09-26T09:00:47.349Z,0.70
2022-09-26T09:01:47.913Z,0.70
2022-09-26T09:02:48.781Z,0.70
2022-09-26T09:03:48.692Z,0.71
2022-09-26T09:04:53.631Z,0.70
2022-09-26T09:05:49.590Z,0.70
2022-09-26T09:06:50.041Z,0.69
2022-09-26T09:07:50.492Z,0.68
2022-09-26T09:08:51.018Z,0.68
2022-09-26T09:09:51.414Z,0.67
2022-09-26T09:10:51.847Z,0.67
2022-09-26T09:11:52.297Z,0.67
2022-09-26T09:12:52.751Z,0.66
2022-09-26T09:13:53.203Z,0.66
2022-09-26T09:15:13.868Z,0.66
2022-09-26T09:15:54.168Z,0.65
2022-09-26T09:16:54.565Z,0.66
2022-09-26T09:17:55.019Z,0.65
2022-09-26T09:18:55.472Z,0.66
2022-09-26T09:19:55.950Z,0.66
2022-09-26T09:20:56.379Z,0.65
2022-09-26T09:21:56.831Z,0.64
2022-09-26T09:22:57.287Z,0.65
2022-09-26T09:23:57.743Z,0.65
2022-09-26T09:24:58.217Z,0.66
2022-09-26T09:27:52.227Z,0.68
2022-09-26T09:28:05.535Z,0.66
2022-09-26T09:29:00.005Z,0.67
2022-09-26T09:30:00.492Z,0.69
2022-09-26T09:31:00.991Z,0.72
2022-09-26T09:32:01.382Z,0.74
2022-09-26T09:33:01.818Z,0.76
2022-09-26T09:34:02.299Z,0.76
2022-09-26T09:35:02.730Z,0.76
2022-09-26T09:36:03.162Z,0.76
2022-09-26T09:37:03.605Z,0.76
2022-09-26T09:38:04.057Z,0.76
2022-09-26T09:39:04.502Z,0.77
2022-09-26T09:41:07.203Z,0.85
2022-09-26T09:42:07.582Z,0.87
2022-09-26T09:43:07.992Z,0.87
2022-09-26T09:44:08.443Z,0.85
2022-09-26T09:45:08.895Z,0.80
2022-09-26T09:46:09.377Z,0.76
2022-09-26T09:47:09.769Z,0.70
2022-09-26T09:48:10.214Z,0.64
2022-09-26T09:49:10.664Z,0.60
2022-09-26T09:50:11.110Z,0.59
2022-09-26T09:51:11.579Z,0.60
2022-09-26T09:52:12.012Z,0.60
2022-09-26T09:53:12.462Z,0.60
2022-09-26T09:54:12.944Z,0.60
2022-09-26T09:55:13.368Z,0.59
2022-09-26T09:56:13.843Z,0.59
2022-09-26T09:57:14.279Z,0.58
2022-09-26T09:58:14.732Z,0.58
2022-09-26T09:59:15.205Z,0.57
2022-09-26T10:00:15.738Z,0.56
2022-09-26T10:01:16.141Z,0.52
2022-09-26T10:02:16.562Z,0.49
2022-09-26T10:03:17.055Z,0.46
2022-09-26T10:04:17.464Z,0.45
2022-09-26T10:05:17.921Z,0.47
2022-09-26T10:06:46.016Z,0.48
2022-09-26T10:07:18.834Z,0.49
2022-09-26T10:08:19.297Z,0.49
2022-09-26T10:09:36.289Z,0.49
2022-09-26T10:10:20.210Z,0.49
2022-09-26T10:11:20.699Z,0.50
2022-09-26T10:12:21.129Z,0.52
2022-09-26T10:13:21.580Z,0.54
2022-09-26T10:14:22.039Z,0.56
2022-09-26T10:15:22.490Z,0.57
2022-09-26T10:16:23.004Z,0.57
2022-09-26T10:17:23.398Z,0.58
2022-09-26T10:18:25.737Z,0.58
2022-09-26T10:19:24.301Z,0.59
2022-09-26T10:20:24.755Z,0.59
2022-09-26T10:21:25.234Z,0.57
2022-09-26T10:22:25.659Z,0.56
2022-09-26T10:23:26.111Z,0.56
2022-09-26T10:24:26.565Z,0.55
2022-09-26T10:25:27.019Z,0.55
2022-09-26T10:26:31.242Z,0.54
2022-09-26T10:27:27.926Z,0.54
2022-09-26T10:28:28.393Z,0.55
2022-09-26T10:29:28.842Z,0.55
2022-09-26T10:30:29.299Z,0.54
2022-09-26T10:31:29.793Z,0.53
2022-09-26T10:32:30.209Z,0.53
2022-09-26T10:33:30.667Z,0.53
2022-09-26T10:34:31.123Z,0.52
2022-09-26T10:35:31.582Z,0.52
2022-09-26T10:36:32.064Z,0.51
2022-09-26T10:37:32.498Z,0.50
2022-09-26T10:38:32.960Z,0.50
2022-09-26T10:39:33.416Z,0.51
2022-09-26T10:40:33.911Z,0.51
2022-09-26T10:41:34.352Z,0.52
2022-09-26T10:42:34.793Z,0.53
2022-09-26T10:43:35.248Z,0.54
2022-09-26T10:44:35.706Z,0.52
2022-09-26T10:45:36.162Z,0.51
2022-09-26T10:46:36.666Z,0.51
2022-09-26T10:47:37.079Z,0.51
2022-09-26T10:48:37.539Z,0.50
2022-09-26T10:49:37.997Z,0.50
2022-09-26T10:50:38.463Z,0.50
2022-09-26T10:51:38.936Z,0.50
2022-09-26T10:52:39.376Z,0.49
2022-09-26T10:53:39.840Z,0.49
2022-09-26T10:54:40.306Z,0.49
2022-09-26T10:55:40.756Z,0.51
2022-09-26T10:56:41.246Z,0.52
2022-09-26T10:57:41.677Z,0.53
2022-09-26T10:58:42.133Z,0.52
2022-09-26T10:59:42.590Z,0.51
2022-09-26T11:00:43.080Z,0.52
2022-09-26T11:01:43.610Z,0.53
2022-09-26T11:02:43.962Z,0.52
2022-09-26T11:03:44.545Z,0.52
2022-09-26T11:04:44.875Z,0.53
2022-09-26T11:05:45.351Z,0.53
2022-09-26T11:06:45.813Z,0.54
2022-09-26T11:07:46.247Z,0.53
2022-09-26T11:08:46.736Z,0.54
2022-09-26T11:09:47.161Z,0.55
2022-09-26T11:10:47.614Z,0.57
2022-09-26T11:11:48.087Z,0.59
2022-09-26T11:12:48.524Z,0.60
2022-09-26T11:13:48.976Z,0.59
2022-09-26T11:14:49.432Z,0.59
2022-09-26T11:15:49.930Z,0.62
2022-09-26T11:16:50.356Z,0.63
2022-09-26T11:17:50.781Z,0.64
2022-09-26T11:18:51.235Z,0.66
2022-09-26T11:19:54.857Z,0.67
2022-09-26T11:20:52.143Z,0.68
2022-09-26T11:21:52.612Z,0.68
2022-09-26T11:22:53.035Z,0.68
2022-09-26T11:23:53.482Z,0.69
2022-09-26T11:24:53.934Z,0.68
2022-09-26T11:25:57.820Z,0.68
2022-09-26T11:26:54.855Z,0.68
2022-09-26T11:27:55.279Z,0.68
2022-09-26T11:28:55.730Z,0.69
2022-09-26T11:29:56.179Z,0.70
2022-09-26T11:30:56.696Z,0.66
2022-09-26T11:32:00.162Z,0.60
2022-09-26T11:32:57.526Z,0.57
2022-09-26T11:33:57.975Z,0.61
2022-09-26T11:34:58.427Z,0.69
2022-09-26T11:35:58.878Z,0.73
2022-09-26T11:36:59.356Z,0.72
2022-09-26T11:37:59.780Z,0.69
2022-09-26T11:39:00.232Z,0.68
2022-09-26T11:40:00.686Z,0.68
2022-09-26T11:41:01.195Z,0.67
2022-09-26T11:42:01.612Z,0.65
2022-09-26T11:43:02.049Z,0.62
2022-09-26T11:44:02.507Z,0.61
2022-09-26T11:45:02.961Z,0.61
2022-09-26T11:46:03.531Z,0.62
2022-09-26T11:47:03.894Z,0.60
2022-09-26T11:48:04.338Z,0.60
2022-09-26T11:49:04.801Z,0.59
2022-09-26T11:50:05.243Z,0.58
2022-09-26T11:51:05.710Z,0.58
2022-09-26T11:52:06.183Z,0.59
2022-09-26T11:53:06.614Z,0.59
2022-09-26T11:54:07.092Z,0.59
2022-09-26T11:55:07.527Z,0.59
2022-09-26T11:56:07.992Z,0.57
2022-09-26T11:57:08.462Z,0.56
2022-09-26T11:58:08.898Z,0.56
2022-09-26T11:59:09.356Z,0.58
2022-09-26T12:00:09.910Z,0.60
2022-09-26T12:01:10.269Z,0.60
2022-09-26T12:02:10.748Z,0.63
2022-09-26T12:03:11.292Z,0.65
2022-09-26T12:04:11.904Z,0.63
2022-09-26T12:05:12.098Z,0.60
2022-09-26T12:06:12.561Z,0.59
2022-09-26T12:07:13.031Z,0.58
2022-09-26T12:08:13.466Z,0.57
2022-09-26T12:09:13.923Z,0.57
2022-09-26T12:10:14.377Z,0.57
2022-09-26T12:11:14.843Z,0.56
2022-09-26T12:12:15.311Z,0.56
2022-09-26T12:13:15.749Z,0.56
2022-09-26T12:14:16.269Z,0.56
2022-09-26T12:15:16.664Z,0.57
2022-09-26T12:16:17.174Z,0.57
2022-09-26T12:17:17.597Z,0.57
2022-09-26T12:18:18.032Z,0.58
2022-09-26T12:19:18.498Z,0.59
2022-09-26T12:20:18.950Z,0.60
2022-09-26T12:21:19.412Z,0.59
2022-09-26T12:22:19.919Z,0.59
2022-09-26T12:23:20.353Z,0.59
2022-09-26T12:24:20.786Z,0.60
2022-09-26T12:25:21.243Z,0.60
2022-09-26T12:26:21.703Z,0.62
2022-09-26T12:27:22.196Z,0.65
2022-09-26T12:28:22.615Z,0.68
2022-09-26T12:29:23.068Z,0.70
2022-09-26T12:30:23.524Z,0.72
2022-09-26T12:31:24.040Z,0.75
2022-09-26T12:32:24.445Z,0.80
2022-09-26T12:33:24.879Z,0.82
2022-09-26T12:34:25.325Z,0.84
2022-09-26T12:35:25.773Z,0.85
2022-09-26T12:36:26.221Z,0.87
2022-09-26T12:37:26.696Z,0.88
2022-09-26T12:38:27.121Z,0.88
2022-09-26T12:39:27.566Z,0.86
2022-09-26T12:40:28.095Z,0.85
2022-09-26T12:41:28.460Z,0.85
2022-09-26T12:42:28.932Z,0.85
2022-09-26T12:43:29.355Z,0.85
2022-09-26T12:44:29.800Z,0.85
2022-09-26T12:45:30.251Z,0.85
2022-09-26T12:46:30.739Z,0.86
2022-09-26T12:47:31.162Z,0.86
2022-09-26T12:48:31.589Z,0.86
2022-09-26T12:49:32.042Z,0.87
2022-09-26T12:50:32.484Z,0.85
2022-09-26T12:51:32.933Z,0.83
2022-09-26T12:52:33.399Z,0.83
2022-09-26T12:53:33.828Z,0.85
2022-09-26T12:54:34.282Z,0.85
2022-09-26T12:55:34.729Z,0.85
2022-09-26T12:56:35.184Z,0.86
2022-09-26T12:57:35.653Z,0.86
2022-09-26T12:58:36.089Z,0.87
2022-09-26T12:59:38.658Z,0.86
2022-09-26T13:00:36.991Z,0.85
2022-09-26T13:01:37.491Z,0.85
2022-09-26T13:02:37.995Z,0.87
2022-09-26T13:03:38.347Z,0.91
2022-09-26T13:04:38.797Z,1.00
2022-09-26T13:05:39.246Z,1.04
2022-09-26T13:06:39.696Z,1.03
2022-09-26T13:07:40.164Z,1.03
2022-09-26T13:08:40.604Z,1.04
2022-09-26T13:09:41.068Z,1.01
2022-09-26T13:10:41.482Z,0.97
2022-09-26T13:11:41.929Z,0.95
2022-09-26T13:12:42.402Z,0.96
2022-09-26T13:13:42.825Z,0.94
2022-09-26T13:14:43.321Z,0.93
2022-09-26T13:15:43.794Z,0.95
2022-09-26T13:16:44.161Z,0.99
2022-09-26T13:17:44.626Z,0.99
2022-09-26T13:18:45.122Z,1.02
2022-09-26T13:19:45.497Z,1.05
2022-09-26T13:20:45.943Z,1.08
2022-09-26T13:21:46.386Z,1.08
2022-09-26T13:22:46.852Z,1.07
2022-09-26T13:23:47.279Z,1.06
2022-09-26T13:24:47.723Z,1.05
2022-09-26T13:25:49.931Z,1.05
2022-09-26T13:26:48.616Z,1.03
2022-09-26T13:27:49.076Z,1.03
2022-09-26T13:29:12.965Z,1.01